createdAt,value
2023-02-27T00:00:16.576Z,144244.03
2023-02-27T00:01:19.049Z,144238.03
2023-02-27T00:02:21.586Z,144234.47
2023-02-27T00:03:24.811Z,144234.47
2023-02-27T00:04:27.573Z,144236.84
2023-02-27T00:05:30.211Z,144234.47
2023-02-27T00:06:32.747Z,144224.84
2023-02-27T00:07:35.254Z,144220.06
2023-02-27T00:08:37.794Z,144209.31
2023-02-27T00:09:42.098Z,144203.31
2023-02-27T00:10:44.622Z,144193.78
2023-02-27T00:11:47.141Z,144194.97
2023-02-27T00:12:49.785Z,144190.13
2023-02-27T00:13:52.298Z,144182.97
2023-02-27T00:14:54.841Z,144179.38
2023-02-27T00:15:57.383Z,144177.00
2023-02-27T00:16:59.983Z,144179.38
2023-02-27T00:18:02.519Z,144179.38
2023-02-27T00:19:05.027Z,144172.19
2023-02-27T00:20:13.090Z,144182.97
2023-02-27T00:21:16.066Z,144174.59
2023-02-27T00:22:18.582Z,144166.22
2023-02-27T00:23:21.115Z,144169.81
2023-02-27T00:24:23.626Z,144171.00
2023-02-27T00:25:26.024Z,144167.41
2023-02-27T00:26:28.667Z,144160.22
2023-02-27T00:27:32.749Z,144160.22
2023-02-27T00:28:37.195Z,144162.66
2023-02-27T00:29:39.831Z,144174.59
2023-02-27T00:30:42.236Z,144162.66
2023-02-27T00:31:45.546Z,144155.44
2023-02-27T00:32:48.110Z,144153.03
2023-02-27T00:33:50.638Z,144149.44
2023-02-27T00:34:53.148Z,144138.69
2023-02-27T00:36:00.352Z,144150.66
2023-02-27T00:37:03.717Z,144141.09
2023-02-27T00:38:06.354Z,144141.09
2023-02-27T00:39:08.992Z,144137.50
2023-02-27T00:40:11.993Z,144150.66
2023-02-27T00:41:14.872Z,144148.25
2023-02-27T00:42:17.404Z,144136.31
2023-02-27T00:43:19.916Z,144127.88
2023-02-27T00:44:22.436Z,144131.53
2023-02-27T00:45:24.954Z,144129.13
2023-02-27T00:46:27.981Z,144123.13
2023-02-27T00:47:30.474Z,144112.34
2023-02-27T00:48:33.259Z,144114.75
2023-02-27T00:49:36.955Z,144121.91
2023-02-27T00:50:39.597Z,144119.53
2023-02-27T00:51:42.135Z,144112.34
2023-02-27T00:52:44.643Z,144108.78
2023-02-27T00:53:47.162Z,144098.00
2023-02-27T00:54:50.642Z,144089.59
2023-02-27T00:55:53.162Z,144081.25
2023-02-27T00:56:55.679Z,144080.03
2023-02-27T00:57:58.210Z,144081.25
2023-02-27T00:59:00.728Z,144109.97
2023-02-27T01:00:05.284Z,144111.16
2023-02-27T01:01:08.103Z,144107.56
2023-02-27T01:02:10.831Z,144105.19
2023-02-27T01:03:13.209Z,144095.56
2023-02-27T01:04:15.746Z,144093.19
2023-02-27T01:05:18.857Z,144100.41
2023-02-27T01:06:21.618Z,144099.22
2023-02-27T01:07:24.251Z,144088.41
2023-02-27T01:08:26.775Z,144086.03
2023-02-27T01:09:29.302Z,144081.25
2023-02-27T01:10:31.941Z,144077.66
2023-02-27T01:11:34.464Z,144074.06
2023-02-27T01:12:36.984Z,144071.69
2023-02-27T01:13:39.528Z,144071.69
2023-02-27T01:14:43.938Z,144064.50
2023-02-27T01:15:46.491Z,144060.88
2023-02-27T01:16:49.957Z,144064.50
2023-02-27T01:17:52.461Z,144054.91
2023-02-27T01:18:56.432Z,144047.72
2023-02-27T01:19:59.186Z,144035.78
2023-02-27T01:21:01.945Z,144026.19
2023-02-27T01:22:04.478Z,144020.22
2023-02-27T01:23:06.987Z,144017.81
2023-02-27T01:24:10.363Z,144022.59
2023-02-27T01:25:12.871Z,144011.84
2023-02-27T01:26:15.388Z,144014.25
2023-02-27T01:27:17.791Z,144015.44
2023-02-27T01:28:20.311Z,144011.84
2023-02-27T01:29:22.829Z,144011.84
2023-02-27T01:30:25.308Z,144009.47
2023-02-27T01:31:28.291Z,144014.25
2023-02-27T01:32:31.154Z,144009.47
2023-02-27T01:33:34.006Z,144004.69
2023-02-27T01:34:36.593Z,144004.69
2023-02-27T01:35:39.513Z,144004.69
2023-02-27T01:36:42.174Z,144004.69
2023-02-27T01:37:44.803Z,144004.69
2023-02-27T01:38:47.556Z,144007.06
2023-02-27T01:39:50.080Z,144004.69
2023-02-27T01:40:52.964Z,144002.28
2023-02-27T01:41:56.209Z,144028.56
2023-02-27T01:42:58.726Z,144038.19
2023-02-27T01:44:04.606Z,144042.97
2023-02-27T01:45:13.008Z,144050.13
2023-02-27T01:46:15.525Z,144030.97
2023-02-27T01:47:19.959Z,144021.41
2023-02-27T01:48:33.539Z,144045.34
2023-02-27T01:49:36.042Z,144013.03
2023-02-27T01:50:43.602Z,144017.81
2023-02-27T01:51:53.809Z,144016.63
2023-02-27T01:52:59.930Z,144009.47
2023-02-27T01:54:05.448Z,144014.25
2023-02-27T01:55:09.655Z,143999.91
2023-02-27T01:56:17.450Z,144009.47
2023-02-27T01:57:20.099Z,143992.69
2023-02-27T01:58:22.744Z,144001.09
2023-02-27T01:59:25.374Z,143991.50
2023-02-27T02:00:28.132Z,143998.66
2023-02-27T02:01:33.134Z,144009.47
2023-02-27T02:02:40.755Z,144014.25
2023-02-27T02:03:50.696Z,144026.19
2023-02-27T02:04:55.025Z,144023.78
2023-02-27T02:05:59.694Z,144013.03
2023-02-27T02:07:11.818Z,144030.97
2023-02-27T02:08:18.653Z,144021.41
2023-02-27T02:09:22.498Z,144023.78
2023-02-27T02:10:25.987Z,144023.78
2023-02-27T02:11:29.081Z,144030.97
2023-02-27T02:12:38.219Z,144054.91
2023-02-27T02:13:41.476Z,144047.72
2023-02-27T02:14:47.223Z,144026.19
2023-02-27T02:16:15.782Z,144042.97
2023-02-27T02:17:51.189Z,144051.31
2023-02-27T02:19:31.145Z,144047.72
2023-02-27T02:20:52.528Z,144027.38
2023-02-27T02:22:10.263Z,144030.97
2023-02-27T02:23:34.271Z,144026.19
2023-02-27T02:25:10.744Z,144035.78
2023-02-27T02:26:19.880Z,144010.66
2023-02-27T02:27:38.354Z,144030.97
2023-02-27T02:29:17.706Z,144035.78
2023-02-27T02:30:29.233Z,144014.25
2023-02-27T02:31:58.676Z,144028.56
2023-02-27T02:33:37.158Z,144021.41
2023-02-27T02:35:04.526Z,144019.00
2023-02-27T02:36:43.056Z,144026.19
2023-02-27T02:37:51.072Z,143999.91
2023-02-27T02:39:09.315Z,144017.81
2023-02-27T02:40:21.556Z,144025.00
2023-02-27T02:41:40.403Z,144023.78
2023-02-27T02:43:00.105Z,144014.25
2023-02-27T02:44:35.604Z,144021.41
2023-02-27T02:45:55.166Z,144008.28
2023-02-27T02:47:06.560Z,143997.47
2023-02-27T02:48:20.838Z,143991.50
2023-02-27T02:49:47.964Z,143974.78
2023-02-27T02:51:17.485Z,143986.72
2023-02-27T02:52:59.164Z,143987.91
2023-02-27T02:54:18.087Z,143990.31
2023-02-27T02:55:24.926Z,143961.59
2023-02-27T02:56:33.924Z,143966.38
2023-02-27T02:58:03.699Z,143971.19
2023-02-27T02:59:14.968Z,143960.41
2023-02-27T03:00:21.329Z,143949.66
2023-02-27T03:01:32.295Z,143962.78
2023-02-27T03:02:43.783Z,143954.41
2023-02-27T03:03:56.142Z,143968.81
2023-02-27T03:05:09.336Z,143973.59
2023-02-27T03:06:20.492Z,143971.19
2023-02-27T03:07:41.542Z,143963.97
2023-02-27T03:08:53.498Z,143950.84
2023-02-27T03:10:10.909Z,143949.66
2023-02-27T03:11:13.542Z,143928.09
2023-02-27T03:12:21.582Z,143940.09
2023-02-27T03:13:36.586Z,143946.06
2023-02-27T03:14:54.460Z,143942.47
2023-02-27T03:16:02.662Z,143928.09
2023-02-27T03:17:12.101Z,143954.41
2023-02-27T03:18:20.743Z,143949.66
2023-02-27T03:19:31.424Z,143953.22
2023-02-27T03:20:39.946Z,143959.19
2023-02-27T03:21:52.064Z,143959.19
2023-02-27T03:22:58.184Z,143959.19
2023-02-27T03:24:04.568Z,143959.19
2023-02-27T03:25:11.141Z,143956.81
2023-02-27T03:26:23.381Z,143956.81
2023-02-27T03:27:32.280Z,143963.97
2023-02-27T03:28:40.302Z,143947.25
2023-02-27T03:29:49.906Z,143937.69
2023-02-27T03:31:09.997Z,143930.50
2023-02-27T03:32:18.521Z,143940.09
2023-02-27T03:33:50.158Z,143948.44
2023-02-27T03:34:52.789Z,143940.09
2023-02-27T03:36:01.550Z,143937.69
2023-02-27T03:37:21.241Z,143959.19
2023-02-27T03:38:44.876Z,143960.41
2023-02-27T03:40:26.396Z,143972.38
2023-02-27T03:41:37.430Z,143961.59
2023-02-27T03:43:21.116Z,143961.59
2023-02-27T03:44:46.202Z,143932.88
2023-02-27T03:45:48.600Z,143961.59
2023-02-27T03:46:51.233Z,143937.69
2023-02-27T03:47:53.992Z,143949.66
2023-02-27T03:48:56.514Z,143940.09
2023-02-27T03:49:59.281Z,143938.91
2023-02-27T03:51:02.041Z,143932.88
2023-02-27T03:52:04.794Z,143928.09
2023-02-27T03:53:20.280Z,143934.06
2023-02-27T03:54:34.802Z,143929.28
2023-02-27T03:55:41.179Z,143922.13
2023-02-27T03:57:05.402Z,143944.88
2023-02-27T03:58:08.278Z,143925.72
2023-02-27T03:59:11.165Z,143941.28
2023-02-27T04:00:22.207Z,143942.47
2023-02-27T04:01:25.323Z,143928.09
2023-02-27T04:02:28.748Z,143932.88
2023-02-27T04:03:37.446Z,143932.88
2023-02-27T04:04:40.462Z,143918.53
2023-02-27T04:06:23.288Z,143918.53
2023-02-27T04:07:48.856Z,143913.78
2023-02-27T04:09:07.091Z,143935.31
2023-02-27T04:10:18.266Z,143937.69
2023-02-27T04:11:54.619Z,143947.25
2023-02-27T04:13:21.497Z,143958.00
2023-02-27T04:14:40.333Z,143959.19
2023-02-27T04:16:00.910Z,143942.47
2023-02-27T04:17:16.811Z,143959.19
2023-02-27T04:18:32.417Z,143948.44
2023-02-27T04:19:38.773Z,143935.31
2023-02-27T04:21:15.374Z,143928.09
2023-02-27T04:22:41.902Z,143916.16
2023-02-27T04:24:15.856Z,143907.81
2023-02-27T04:25:56.658Z,143877.91
2023-02-27T04:27:08.760Z,143886.25
2023-02-27T04:28:27.755Z,143886.25
2023-02-27T04:29:57.861Z,143914.97
2023-02-27T04:31:00.287Z,143894.63
2023-02-27T04:32:12.135Z,143918.53
2023-02-27T04:33:20.668Z,143913.78
2023-02-27T04:34:36.393Z,143914.97
2023-02-27T04:35:46.710Z,143900.59
2023-02-27T04:37:01.472Z,143901.78
2023-02-27T04:38:14.805Z,143882.69
2023-02-27T04:39:26.553Z,143894.63
2023-02-27T04:40:35.674Z,143883.88
2023-02-27T04:41:52.123Z,143892.22
2023-02-27T04:42:57.516Z,143882.69
2023-02-27T04:44:02.196Z,143868.31
2023-02-27T04:45:11.840Z,143870.69
2023-02-27T04:46:19.377Z,143873.13
2023-02-27T04:47:25.240Z,143856.38
2023-02-27T04:48:34.488Z,143852.78
2023-02-27T04:49:45.161Z,143855.16
2023-02-27T04:50:54.189Z,143846.81
2023-02-27T04:52:05.211Z,143853.97
2023-02-27T04:53:17.809Z,143856.38
2023-02-27T04:54:30.765Z,143865.91
2023-02-27T04:56:08.692Z,143868.31
2023-02-27T04:57:18.646Z,143863.53
2023-02-27T04:58:29.693Z,143861.13
2023-02-27T04:59:38.210Z,143855.16
2023-02-27T05:00:44.927Z,143851.59
2023-02-27T05:01:55.541Z,143849.19
2023-02-27T05:03:09.441Z,143842.03
2023-02-27T05:04:16.031Z,143836.03
2023-02-27T05:05:25.370Z,143834.81
2023-02-27T05:06:32.575Z,143836.03
2023-02-27T05:07:46.614Z,143889.84
2023-02-27T05:09:07.131Z,143901.78
2023-02-27T05:10:17.214Z,143894.63
2023-02-27T05:11:34.618Z,143882.69
2023-02-27T05:13:03.417Z,143865.91
2023-02-27T05:14:19.262Z,143846.81
2023-02-27T05:15:32.728Z,143828.84
2023-02-27T05:16:59.017Z,143824.09
2023-02-27T05:18:06.928Z,143813.34
2023-02-27T05:19:10.264Z,143798.97
2023-02-27T05:20:15.090Z,143796.56
2023-02-27T05:21:32.225Z,143810.94
2023-02-27T05:22:57.422Z,143820.50
2023-02-27T05:24:24.543Z,143840.84
2023-02-27T05:25:27.064Z,143839.66
2023-02-27T05:26:50.592Z,143875.50
2023-02-27T05:27:59.952Z,143898.19
2023-02-27T05:29:13.557Z,143922.13
2023-02-27T05:30:35.577Z,143962.78
2023-02-27T05:32:30.340Z,143986.72
2023-02-27T05:33:47.348Z,144004.69
2023-02-27T05:34:57.680Z,144011.84
2023-02-27T05:36:10.093Z,144030.97
2023-02-27T05:37:18.552Z,144044.16
2023-02-27T05:38:23.973Z,144054.91
2023-02-27T05:39:32.478Z,144066.91
2023-02-27T05:40:39.671Z,144080.03
2023-02-27T05:41:54.209Z,144086.03
2023-02-27T05:43:31.752Z,144114.75
2023-02-27T05:44:38.838Z,144117.13
2023-02-27T05:45:46.375Z,144143.47
2023-02-27T05:46:54.793Z,144160.22
2023-02-27T05:48:04.274Z,144173.41
2023-02-27T05:49:17.246Z,144193.78
2023-02-27T05:50:32.840Z,144217.69
2023-02-27T05:51:38.238Z,144227.28
2023-02-27T05:52:43.045Z,144235.66
2023-02-27T05:53:51.322Z,144264.41
2023-02-27T05:55:00.438Z,144275.16
2023-02-27T05:56:06.799Z,144279.94
2023-02-27T05:57:18.205Z,144289.50
2023-02-27T05:58:36.448Z,144308.69
2023-02-27T06:00:08.730Z,144332.66
2023-02-27T06:01:14.125Z,144347.00
2023-02-27T06:02:17.438Z,144344.59
2023-02-27T06:03:20.617Z,144355.41
2023-02-27T06:04:23.150Z,144356.63
2023-02-27T06:05:27.212Z,144365.00
2023-02-27T06:06:30.944Z,144370.97
2023-02-27T06:07:34.769Z,144387.75
2023-02-27T06:08:37.293Z,144387.75
2023-02-27T06:09:39.825Z,144405.69
2023-02-27T06:10:42.337Z,144409.28
2023-02-27T06:11:44.853Z,144414.06
2023-02-27T06:12:47.376Z,144426.09
2023-02-27T06:13:49.781Z,144454.84
2023-02-27T06:14:52.424Z,144469.22
2023-02-27T06:15:55.060Z,144474.00
2023-02-27T06:16:57.624Z,144477.59
2023-02-27T06:18:00.127Z,144481.16
2023-02-27T06:19:04.801Z,144476.38
2023-02-27T06:20:08.279Z,144488.41
2023-02-27T06:21:11.980Z,144497.97
2023-02-27T06:22:14.502Z,144502.75
2023-02-27T06:23:17.386Z,144501.56
2023-02-27T06:24:22.079Z,144506.34
2023-02-27T06:25:24.703Z,144571.06
2023-02-27T06:26:27.453Z,144603.44
2023-02-27T06:27:29.984Z,144613.06
2023-02-27T06:28:32.982Z,144620.25
2023-02-27T06:29:35.508Z,144622.63
2023-02-27T06:30:38.076Z,144675.34
2023-02-27T06:31:40.676Z,144713.78
2023-02-27T06:32:43.073Z,144702.94
2023-02-27T06:33:45.585Z,144694.56
2023-02-27T06:34:48.109Z,144694.56
2023-02-27T06:35:50.821Z,144693.38
2023-02-27T06:36:53.520Z,144688.56
2023-02-27T06:37:56.626Z,144704.16
2023-02-27T06:38:59.147Z,144687.38
2023-02-27T06:40:01.789Z,144688.56
2023-02-27T06:41:04.556Z,144705.34
2023-02-27T06:42:07.070Z,144707.75
2023-02-27T06:43:10.072Z,144714.97
2023-02-27T06:44:12.598Z,144723.34
2023-02-27T06:45:16.443Z,144736.53
2023-02-27T06:46:19.066Z,144728.16
2023-02-27T06:47:21.607Z,144725.75
2023-02-27T06:48:24.232Z,144749.75
2023-02-27T06:49:26.870Z,144760.53
2023-02-27T06:50:29.403Z,144764.13
2023-02-27T06:51:31.912Z,144790.53
2023-02-27T06:52:34.314Z,144795.31
2023-02-27T06:53:36.834Z,144785.72
2023-02-27T06:54:39.715Z,144790.53
2023-02-27T06:55:42.368Z,144788.13
2023-02-27T06:56:45.394Z,144792.91
2023-02-27T06:57:48.481Z,144802.50
2023-02-27T06:58:51.135Z,144807.34
2023-02-27T06:59:53.636Z,144809.72
2023-02-27T07:00:58.438Z,144819.31
2023-02-27T07:02:01.560Z,144838.47
2023-02-27T07:03:04.688Z,144840.91
2023-02-27T07:04:07.320Z,144849.31
2023-02-27T07:05:11.761Z,144857.69
2023-02-27T07:06:14.285Z,144860.09
2023-02-27T07:07:34.311Z,144876.91
2023-02-27T07:09:02.085Z,144886.50
2023-02-27T07:10:01.806Z,144897.28
2023-02-27T07:11:04.444Z,144908.13
2023-02-27T07:12:08.068Z,144923.69
2023-02-27T07:13:10.855Z,144934.47
2023-02-27T07:14:16.483Z,144934.47
2023-02-27T07:15:20.290Z,144946.50
2023-02-27T07:16:23.534Z,144953.69
2023-02-27T07:17:26.066Z,144957.28
2023-02-27T07:18:29.547Z,144984.91
2023-02-27T07:19:36.261Z,144996.91
2023-02-27T07:20:38.788Z,144999.28
2023-02-27T07:21:41.411Z,145011.31
2023-02-27T07:22:44.192Z,145012.53
2023-02-27T07:23:46.816Z,145016.13
2023-02-27T07:24:49.335Z,145020.91
2023-02-27T07:25:51.862Z,145030.50
2023-02-27T07:26:55.101Z,145047.34
2023-02-27T07:27:57.620Z,145053.34
2023-02-27T07:29:00.537Z,145050.94
2023-02-27T07:30:03.026Z,145052.13
2023-02-27T07:31:05.567Z,145066.56
2023-02-27T07:32:08.140Z,145066.56
2023-02-27T07:33:11.305Z,145078.56
2023-02-27T07:34:15.636Z,145091.75
2023-02-27T07:35:18.752Z,145112.19
2023-02-27T07:36:21.502Z,145114.56
2023-02-27T07:37:25.201Z,145130.22
2023-02-27T07:38:29.074Z,145145.81
2023-02-27T07:39:31.589Z,145165.03
2023-02-27T07:40:33.984Z,145180.63
2023-02-27T07:41:36.507Z,145198.66
2023-02-27T07:42:40.834Z,145219.06
2023-02-27T07:43:43.352Z,145234.69
2023-02-27T07:44:45.869Z,145257.50
2023-02-27T07:45:50.791Z,145280.34
2023-02-27T07:46:53.360Z,145304.38
2023-02-27T07:47:55.836Z,145318.78
2023-02-27T07:48:58.363Z,145359.69
2023-02-27T07:50:01.012Z,145398.13
2023-02-27T07:51:03.538Z,145442.59
2023-02-27T07:52:07.844Z,145506.31
2023-02-27T07:53:10.366Z,145533.97
2023-02-27T07:54:13.004Z,145578.47
2023-02-27T07:55:15.682Z,145631.41
2023-02-27T07:56:18.295Z,145733.66
2023-02-27T07:57:20.806Z,145986.47
2023-02-27T07:58:23.327Z,146317.81
2023-02-27T07:59:25.842Z,146636.28
2023-02-27T08:00:29.353Z,147002.13
2023-02-27T08:01:31.854Z,147268.06
2023-02-27T08:02:34.558Z,147587.44
2023-02-27T08:03:37.035Z,147925.22
2023-02-27T08:04:39.583Z,148216.13
2023-02-27T08:05:41.941Z,148530.31
2023-02-27T08:06:44.808Z,148724.56
2023-02-27T08:07:47.331Z,148912.84
2023-02-27T08:08:50.333Z,149141.28
2023-02-27T08:09:52.857Z,149166.78
2023-02-27T08:10:55.969Z,149380.81
2023-02-27T08:11:58.970Z,149501.25
2023-02-27T08:13:01.613Z,149520.69
2023-02-27T08:14:04.518Z,149650.91
2023-02-27T08:15:07.766Z,149693.53
2023-02-27T08:16:10.331Z,149805.56
2023-02-27T08:17:13.273Z,149839.63
2023-02-27T08:18:16.018Z,149867.66
2023-02-27T08:19:18.417Z,149807.97
2023-02-27T08:20:24.421Z,150130.75
2023-02-27T08:21:27.505Z,149946.78
2023-02-27T08:22:30.181Z,150097.88
2023-02-27T08:23:34.656Z,149882.25
2023-02-27T08:24:37.188Z,150058.91
2023-02-27T08:25:39.660Z,150015.00
2023-02-27T08:26:41.951Z,149973.56
2023-02-27T08:27:44.463Z,150005.28
2023-02-27T08:28:47.225Z,149993.13
2023-02-27T08:29:49.742Z,149905.38
2023-02-27T08:30:52.393Z,149977.22
2023-02-27T08:31:55.197Z,149999.22
2023-02-27T08:32:57.793Z,150180.69
2023-02-27T08:34:09.900Z,149844.50
2023-02-27T08:35:13.623Z,149810.41
2023-02-27T08:36:16.040Z,149888.31
2023-02-27T08:37:18.784Z,149904.16
2023-02-27T08:38:21.695Z,149974.78
2023-02-27T08:39:27.188Z,150190.53
2023-02-27T08:40:29.594Z,150170.97
2023-02-27T08:41:32.227Z,150001.63
2023-02-27T08:42:34.987Z,150292.88
2023-02-27T08:43:37.396Z,150197.81
2023-02-27T08:44:39.907Z,150166.09
2023-02-27T08:45:42.329Z,149834.78
2023-02-27T08:46:45.190Z,149798.25
2023-02-27T08:47:47.590Z,149934.63
2023-02-27T08:48:49.994Z,150027.22
2023-02-27T08:49:52.665Z,149927.31
2023-02-27T08:50:57.769Z,150034.53
2023-02-27T08:52:01.268Z,149876.16
2023-02-27T08:53:03.793Z,149998.00
2023-02-27T08:54:06.319Z,150033.31
2023-02-27T08:55:09.678Z,150075.94
2023-02-27T08:56:12.193Z,150149.00
2023-02-27T08:57:14.716Z,150105.16
2023-02-27T08:58:18.191Z,150106.38
2023-02-27T08:59:20.839Z,150047.91
2023-02-27T09:00:23.946Z,149961.41
2023-02-27T09:01:28.675Z,150089.34
2023-02-27T09:02:32.157Z,150200.25
2023-02-27T09:03:34.760Z,150100.31
2023-02-27T09:04:37.281Z,149895.66
2023-02-27T09:05:40.768Z,149968.72
2023-02-27T09:06:43.290Z,149932.19
2023-02-27T09:07:46.289Z,149974.78
2023-02-27T09:08:49.019Z,150056.47
2023-02-27T09:09:51.565Z,149820.13
2023-02-27T09:10:57.227Z,150046.69
2023-02-27T09:11:59.729Z,150080.78
2023-02-27T09:13:02.376Z,150214.84
2023-02-27T09:14:04.886Z,150149.00
2023-02-27T09:15:08.490Z,150188.09
2023-02-27T09:16:11.318Z,150252.69
2023-02-27T09:17:13.770Z,150286.81
2023-02-27T09:18:16.173Z,150314.78
2023-02-27T09:19:18.692Z,150285.59
2023-02-27T09:20:21.215Z,150358.72
2023-02-27T09:21:24.834Z,150434.31
2023-02-27T09:22:27.337Z,150427.03
2023-02-27T09:23:29.855Z,150369.66
2023-02-27T09:24:32.256Z,150346.50
2023-02-27T09:25:35.133Z,150364.78
2023-02-27T09:26:45.738Z,150463.59
2023-02-27T09:27:48.705Z,150675.81
2023-02-27T09:28:51.478Z,150699.00
2023-02-27T09:29:56.032Z,150705.09
2023-02-27T09:31:02.622Z,150746.66
2023-02-27T09:32:05.353Z,150586.81
2023-02-27T09:33:08.311Z,150586.81
2023-02-27T09:34:10.781Z,150675.81
2023-02-27T09:35:15.862Z,150628.28
2023-02-27T09:36:18.827Z,150609.94
2023-02-27T09:37:21.366Z,150636.78
2023-02-27T09:38:23.873Z,150581.94
2023-02-27T09:39:26.527Z,150647.81
2023-02-27T09:40:32.877Z,150458.72
2023-02-27T09:41:56.511Z,150361.13
2023-02-27T09:43:03.650Z,150692.91
2023-02-27T09:44:33.399Z,150492.84
2023-02-27T09:45:43.572Z,150367.22
2023-02-27T09:46:46.312Z,150342.84
2023-02-27T09:47:53.887Z,150380.66
2023-02-27T09:49:01.433Z,150427.03
2023-02-27T09:50:49.689Z,150442.84
2023-02-27T09:51:53.538Z,150705.09
2023-02-27T09:52:56.170Z,150822.31
2023-02-27T09:54:02.518Z,150810.13
2023-02-27T09:55:12.357Z,150940.72
2023-02-27T09:56:27.218Z,150629.50
2023-02-27T09:57:49.200Z,150622.19
2023-02-27T09:58:54.238Z,150691.72
2023-02-27T10:00:19.681Z,150955.38
2023-02-27T10:01:34.922Z,151083.56
2023-02-27T10:02:40.397Z,151049.38
2023-02-27T10:04:18.613Z,151087.28
2023-02-27T10:05:56.307Z,150766.16
2023-02-27T10:07:16.803Z,150670.94
2023-02-27T10:08:36.252Z,150461.16
2023-02-27T10:10:11.291Z,150573.38
2023-02-27T10:11:17.651Z,150568.50
2023-02-27T10:13:02.054Z,150661.19
2023-02-27T10:14:16.453Z,150911.41
2023-02-27T10:15:30.371Z,150949.28
2023-02-27T10:16:34.875Z,151010.34
2023-02-27T10:17:43.578Z,150889.44
2023-02-27T10:18:48.739Z,150981.03
2023-02-27T10:19:53.537Z,150517.25
2023-02-27T10:20:59.318Z,150680.75
2023-02-27T10:22:10.233Z,150514.81
2023-02-27T10:23:20.791Z,150227.06
2023-02-27T10:24:29.453Z,150314.78
2023-02-27T10:25:39.988Z,150151.44
2023-02-27T10:26:45.664Z,150196.59
2023-02-27T10:27:51.263Z,150292.88
2023-02-27T10:28:54.027Z,150401.41
2023-02-27T10:30:23.502Z,150392.88
2023-02-27T10:31:34.095Z,150475.75
2023-02-27T10:32:38.787Z,150259.97
2023-02-27T10:33:42.867Z,150370.88
2023-02-27T10:34:50.805Z,150302.63
2023-02-27T10:35:53.971Z,150592.91
2023-02-27T10:37:00.508Z,150597.78
2023-02-27T10:38:08.441Z,150518.47
2023-02-27T10:39:16.940Z,150507.47
2023-02-27T10:40:20.815Z,150629.50
2023-02-27T10:41:24.051Z,150558.72
2023-02-27T10:42:31.604Z,150583.16
2023-02-27T10:43:34.614Z,150540.41
2023-02-27T10:44:37.351Z,150055.25
2023-02-27T10:45:39.751Z,150123.47
2023-02-27T10:46:42.427Z,150424.59
2023-02-27T10:47:45.630Z,150446.50
2023-02-27T10:48:48.279Z,150168.53
2023-02-27T10:49:52.232Z,150008.94
2023-02-27T10:51:23.434Z,149800.69
2023-02-27T10:52:26.313Z,149760.47
2023-02-27T10:53:28.714Z,149664.31
2023-02-27T10:54:31.716Z,149474.47
2023-02-27T10:55:38.430Z,149490.25
2023-02-27T10:56:41.201Z,149876.16
2023-02-27T10:57:43.835Z,149941.91
2023-02-27T10:58:46.361Z,149938.25
2023-02-27T10:59:55.981Z,149978.44
2023-02-27T11:01:00.885Z,149956.56
2023-02-27T11:02:20.817Z,149737.34
2023-02-27T11:03:31.478Z,149226.34
2023-02-27T11:04:35.691Z,149380.81
2023-02-27T11:05:38.334Z,149028.22
2023-02-27T11:06:42.668Z,149338.28
2023-02-27T11:07:45.408Z,149180.19
2023-02-27T11:09:12.765Z,149153.44
2023-02-27T11:10:17.140Z,149058.59
2023-02-27T11:11:28.569Z,148966.25
2023-02-27T11:12:34.603Z,148849.66
2023-02-27T11:13:45.294Z,148841.19
2023-02-27T11:14:54.288Z,148805.88
2023-02-27T11:16:15.747Z,148554.59
2023-02-27T11:17:33.047Z,148542.44
2023-02-27T11:18:37.878Z,148677.19
2023-02-27T11:19:40.370Z,148822.91
2023-02-27T11:20:43.753Z,148946.84
2023-02-27T11:22:01.624Z,149191.09
2023-02-27T11:23:13.853Z,149537.72
2023-02-27T11:24:20.704Z,149581.56
2023-02-27T11:25:24.776Z,149458.63
2023-02-27T11:26:34.645Z,149489.03
2023-02-27T11:27:37.142Z,149689.84
2023-02-27T11:28:39.896Z,149776.28
2023-02-27T11:30:00.302Z,149676.47
2023-02-27T11:31:06.899Z,149520.69
2023-02-27T11:32:15.147Z,149822.56
2023-02-27T11:33:20.970Z,149958.97
2023-02-27T11:34:23.954Z,150047.91
2023-02-27T11:35:31.457Z,150035.75
2023-02-27T11:37:19.988Z,150307.50
2023-02-27T11:38:28.991Z,150403.84
2023-02-27T11:39:38.122Z,150488.00
2023-02-27T11:40:50.468Z,150206.34
2023-02-27T11:41:55.270Z,149990.69
2023-02-27T11:43:05.119Z,150129.56
2023-02-27T11:44:27.351Z,150107.59
2023-02-27T11:46:13.910Z,150138.06
2023-02-27T11:47:21.586Z,149681.34
2023-02-27T11:48:29.834Z,149781.19
2023-02-27T11:49:40.038Z,149890.78
2023-02-27T11:50:55.761Z,149849.34
2023-02-27T11:52:18.198Z,149648.47
2023-02-27T11:53:48.077Z,149455.00
2023-02-27T11:55:01.761Z,149306.59
2023-02-27T11:56:08.840Z,149028.22
2023-02-27T11:57:24.559Z,148832.59
2023-02-27T11:58:31.523Z,148626.22
2023-02-27T11:59:49.657Z,148752.47
2023-02-27T12:00:58.765Z,148872.72
2023-02-27T12:02:20.365Z,149044.03
2023-02-27T12:03:32.097Z,149253.09
2023-02-27T12:04:43.169Z,149468.41
2023-02-27T12:05:50.486Z,149520.69
2023-02-27T12:07:03.943Z,149765.34
2023-02-27T12:08:19.046Z,149900.53
2023-02-27T12:09:40.528Z,149734.91
2023-02-27T12:11:14.233Z,149653.34
2023-02-27T12:12:29.732Z,149798.25
2023-02-27T12:13:36.690Z,149923.66
2023-02-27T12:14:57.835Z,150152.72
2023-02-27T12:16:18.671Z,150273.38
2023-02-27T12:17:50.258Z,150275.81
2023-02-27T12:18:55.770Z,150155.16
2023-02-27T12:20:07.896Z,150114.91
2023-02-27T12:21:26.382Z,150239.25
2023-02-27T12:22:33.819Z,150222.22
2023-02-27T12:23:44.142Z,150012.59
2023-02-27T12:25:00.229Z,149730.03
2023-02-27T12:26:08.504Z,149574.28
2023-02-27T12:27:14.878Z,149294.41
2023-02-27T12:28:53.378Z,149199.59
2023-02-27T12:30:17.865Z,149472.03
2023-02-27T12:31:36.175Z,149180.19
2023-02-27T12:32:42.709Z,149160.72
2023-02-27T12:34:09.226Z,149075.63
2023-02-27T12:35:17.388Z,148903.06
2023-02-27T12:36:19.911Z,148760.97
2023-02-27T12:37:28.193Z,148560.69
2023-02-27T12:38:31.785Z,148405.34
2023-02-27T12:39:35.153Z,148550.97
2023-02-27T12:40:42.227Z,148628.66
2023-02-27T12:42:05.865Z,148657.78
2023-02-27T12:43:14.158Z,148638.34
2023-02-27T12:44:23.028Z,148703.91
2023-02-27T12:45:35.899Z,148612.91
2023-02-27T12:46:50.745Z,148663.84
2023-02-27T12:47:59.025Z,148684.50
2023-02-27T12:49:15.958Z,148702.69
2023-02-27T12:50:19.910Z,148836.28
2023-02-27T12:51:54.230Z,148734.25
2023-02-27T12:53:19.910Z,148747.63
2023-02-27T12:54:40.806Z,148818.06
2023-02-27T12:55:54.965Z,148668.69
2023-02-27T12:57:39.468Z,148359.28
2023-02-27T12:58:54.599Z,148318.06
2023-02-27T13:00:10.437Z,148248.84
2023-02-27T13:01:25.877Z,148318.06
2023-02-27T13:02:52.924Z,148308.31
2023-02-27T13:04:14.157Z,148281.66
2023-02-27T13:05:38.640Z,148179.75